sensor_id;sensor_type;location;lat;lon;timestamp;P1;durP1;ratioP1;P2;durP2;ratioP2
9675;SDS011;4876;42.656;23.292;2023-09-08T00:02:22;8.50;;;7.60;;
9675;SDS011;4876;42.656;23.292;2023-09-08T00:04:50;10.90;;;7.37;;
9675;SDS011;4876;42.656;23.292;2023-09-08T00:07:17;11.20;;;9.57;;
9675;SDS011;4876;42.656;23.292;2023-09-08T00:09:44;10.33;;;9.30;;
9675;SDS011;4876;42.656;23.292;2023-09-08T00:12:11;11.40;;;7.43;;
9675;SDS011;4876;42.656;23.292;2023-09-08T00:14:38;10.57;;;9.37;;
9675;SDS011;4876;42.656;23.292;2023-09-08T00:17:05;11.57;;;7.57;;
9675;SDS011;4876;42.656;23.292;2023-09-08T00:19:32;9.67;;;7.27;;
9675;SDS011;4876;42.656;23.292;2023-09-08T00:22:00;11.00;;;6.20;;
9675;SDS011;4876;42.656;23.292;2023-09-08T00:24:27;6.90;;;6.20;;
9675;SDS011;4876;42.656;23.292;2023-09-08T00:26:54;9.93;;;6.77;;
9675;SDS011;4876;42.656;23.292;2023-09-08T00:29:21;8.20;;;6.37;;
9675;SDS011;4876;42.656;23.292;2023-09-08T00:31:48;11.67;;;6.70;;
9675;SDS011;4876;42.656;23.292;2023-09-08T00:34:14;6.73;;;6.13;;
9675;SDS011;4876;42.656;23.292;2023-09-08T00:36:41;8.90;;;5.77;;
9675;SDS011;4876;42.656;23.292;2023-09-08T00:39:09;7.50;;;6.03;;
9675;SDS011;4876;42.656;23.292;2023-09-08T00:41:36;7.57;;;4.73;;
9675;SDS011;4876;42.656;23.292;2023-09-08T00:44:03;10.03;;;5.00;;
9675;SDS011;4876;42.656;23.292;2023-09-08T00:46:31;11.90;;;6.07;;
9675;SDS011;4876;42.656;23.292;2023-09-08T00:48:58;9.93;;;5.60;;
9675;SDS011;4876;42.656;23.292;2023-09-08T00:51:25;7.77;;;5.33;;
9675;SDS011;4876;42.656;23.292;2023-09-08T00:53:52;7.97;;;5.47;;
9675;SDS011;4876;42.656;23.292;2023-09-08T00:56:21;5.47;;;4.43;;
9675;SDS011;4876;42.656;23.292;2023-09-08T00:58:49;7.77;;;4.83;;
9675;SDS011;4876;42.656;23.292;2023-09-08T01:01:16;5.70;;;4.47;;
9675;SDS011;4876;42.656;23.292;2023-09-08T01:03:43;6.83;;;4.83;;
9675;SDS011;4876;42.656;23.292;2023-09-08T01:06:10;10.77;;;5.20;;
9675;SDS011;4876;42.656;23.292;2023-09-08T01:08:37;5.73;;;5.13;;
9675;SDS011;4876;42.656;23.292;2023-09-08T01:11:04;7.37;;;4.87;;
9675;SDS011;4876;42.656;23.292;2023-09-08T01:13:34;8.33;;;5.07;;
9675;SDS011;4876;42.656;23.292;2023-09-08T01:16:01;5.30;;;4.80;;
9675;SDS011;4876;42.656;23.292;2023-09-08T01:18:28;5.97;;;4.33;;
9675;SDS011;4876;42.656;23.292;2023-09-08T01:21:04;7.87;;;4.40;;
9675;SDS011;4876;42.656;23.292;2023-09-08T01:23:47;4.47;;;4.07;;
9675;SDS011;4876;42.656;23.292;2023-09-08T01:26:25;5.53;;;4.63;;
9675;SDS011;4876;42.656;23.292;2023-09-08T01:28:57;6.40;;;4.87;;
9675;SDS011;4876;42.656;23.292;2023-09-08T01:31:25;7.13;;;3.83;;
9675;SDS011;4876;42.656;23.292;2023-09-08T01:33:52;9.07;;;4.67;;
9675;SDS011;4876;42.656;23.292;2023-09-08T01:36:19;5.17;;;4.20;;
9675;SDS011;4876;42.656;23.292;2023-09-08T01:38:46;7.77;;;5.50;;
9675;SDS011;4876;42.656;23.292;2023-09-08T01:41:12;5.70;;;4.60;;
9675;SDS011;4876;42.656;23.292;2023-09-08T01:43:41;7.80;;;4.83;;
9675;SDS011;4876;42.656;23.292;2023-09-08T01:46:07;4.47;;;3.80;;
9675;SDS011;4876;42.656;23.292;2023-09-08T01:48:34;7.57;;;5.33;;
9675;SDS011;4876;42.656;23.292;2023-09-08T01:51:01;5.57;;;4.63;;
9675;SDS011;4876;42.656;23.292;2023-09-08T01:53:28;10.20;;;5.63;;
9675;SDS011;4876;42.656;23.292;2023-09-08T01:55:54;10.27;;;4.40;;
9675;SDS011;4876;42.656;23.292;2023-09-08T01:58:21;14.53;;;4.27;;
9675;SDS011;4876;42.656;23.292;2023-09-08T02:00:50;10.37;;;3.97;;
9675;SDS011;4876;42.656;23.292;2023-09-08T02:03:17;4.37;;;3.97;;
9675;SDS011;4876;42.656;23.292;2023-09-08T02:05:44;9.87;;;4.27;;
9675;SDS011;4876;42.656;23.292;2023-09-08T02:08:11;4.80;;;4.23;;
9675;SDS011;4876;42.656;23.292;2023-09-08T02:10:40;8.43;;;4.57;;
9675;SDS011;4876;42.656;23.292;2023-09-08T02:13:06;6.97;;;4.70;;
9675;SDS011;4876;42.656;23.292;2023-09-08T02:15:34;4.53;;;4.00;;
9675;SDS011;4876;42.656;23.292;2023-09-08T02:18:04;5.53;;;3.93;;
9675;SDS011;4876;42.656;23.292;2023-09-08T02:20:32;5.77;;;4.00;;
9675;SDS011;4876;42.656;23.292;2023-09-08T02:23:04;8.77;;;5.97;;
9675;SDS011;4876;42.656;23.292;2023-09-08T02:25:32;8.67;;;5.53;;
9675;SDS011;4876;42.656;23.292;2023-09-08T02:27:58;7.20;;;5.23;;
9675;SDS011;4876;42.656;23.292;2023-09-08T02:30:25;6.40;;;4.90;;
9675;SDS011;4876;42.656;23.292;2023-09-08T02:32:52;9.73;;;5.90;;
9675;SDS011;4876;42.656;23.292;2023-09-08T02:35:21;10.77;;;5.80;;
9675;SDS011;4876;42.656;23.292;2023-09-08T02:37:49;4.57;;;4.07;;
9675;SDS011;4876;42.656;23.292;2023-09-08T02:40:16;6.97;;;4.30;;
9675;SDS011;4876;42.656;23.292;2023-09-08T02:42:44;9.57;;;5.17;;
9675;SDS011;4876;42.656;23.292;2023-09-08T02:45:10;6.93;;;4.83;;
9675;SDS011;4876;42.656;23.292;2023-09-08T02:47:37;6.50;;;5.53;;
9675;SDS011;4876;42.656;23.292;2023-09-08T02:50:04;5.57;;;4.80;;
9675;SDS011;4876;42.656;23.292;2023-09-08T02:52:34;12.00;;;5.90;;
9675;SDS011;4876;42.656;23.292;2023-09-08T02:55:00;7.40;;;5.10;;
9675;SDS011;4876;42.656;23.292;2023-09-08T02:57:27;11.77;;;6.27;;
9675;SDS011;4876;42.656;23.292;2023-09-08T02:59:54;9.50;;;6.13;;
9675;SDS011;4876;42.656;23.292;2023-09-08T03:02:21;11.50;;;7.70;;
9675;SDS011;4876;42.656;23.292;2023-09-08T03:04:48;10.13;;;6.93;;
9675;SDS011;4876;42.656;23.292;2023-09-08T03:07:16;9.33;;;6.97;;
9675;SDS011;4876;42.656;23.292;2023-09-08T03:09:44;7.67;;;6.57;;
9675;SDS011;4876;42.656;23.292;2023-09-08T03:12:12;8.70;;;7.17;;
9675;SDS011;4876;42.656;23.292;2023-09-08T03:14:38;10.23;;;5.83;;
9675;SDS011;4876;42.656;23.292;2023-09-08T03:17:05;7.13;;;5.60;;
9675;SDS011;4876;42.656;23.292;2023-09-08T03:19:32;12.03;;;8.03;;
9675;SDS011;4876;42.656;23.292;2023-09-08T03:21:59;12.00;;;8.47;;
9675;SDS011;4876;42.656;23.292;2023-09-08T03:24:26;12.10;;;8.90;;
9675;SDS011;4876;42.656;23.292;2023-09-08T03:26:54;13.10;;;8.60;;
9675;SDS011;4876;42.656;23.292;2023-09-08T03:29:21;9.90;;;7.90;;
9675;SDS011;4876;42.656;23.292;2023-09-08T03:31:48;12.33;;;9.10;;
9675;SDS011;4876;42.656;23.292;2023-09-08T03:34:15;11.50;;;9.13;;
9675;SDS011;4876;42.656;23.292;2023-09-08T03:36:43;11.13;;;8.80;;
9675;SDS011;4876;42.656;23.292;2023-09-08T03:39:09;12.80;;;8.77;;
9675;SDS011;4876;42.656;23.292;2023-09-08T03:41:36;10.10;;;8.67;;
9675;SDS011;4876;42.656;23.292;2023-09-08T03:44:05;12.50;;;9.20;;
9675;SDS011;4876;42.656;23.292;2023-09-08T03:46:31;12.53;;;8.60;;
9675;SDS011;4876;42.656;23.292;2023-09-08T03:48:58;10.93;;;8.33;;
9675;SDS011;4876;42.656;23.292;2023-09-08T03:51:26;8.90;;;8.00;;
9675;SDS011;4876;42.656;23.292;2023-09-08T03:53:53;10.73;;;8.57;;
9675;SDS011;4876;42.656;23.292;2023-09-08T03:56:20;10.17;;;8.47;;
9675;SDS011;4876;42.656;23.292;2023-09-08T03:58:47;14.63;;;8.27;;
9675;SDS011;4876;42.656;23.292;2023-09-08T04:01:15;12.47;;;8.77;;
9675;SDS011;4876;42.656;23.292;2023-09-08T04:03:42;12.43;;;8.37;;
9675;SDS011;4876;42.656;23.292;2023-09-08T04:06:09;11.40;;;8.40;;
9675;SDS011;4876;42.656;23.292;2023-09-08T04:08:36;11.87;;;8.90;;
9675;SDS011;4876;42.656;23.292;2023-09-08T04:11:03;14.33;;;8.93;;
9675;SDS011;4876;42.656;23.292;2023-09-08T04:13:30;18.67;;;9.10;;
9675;SDS011;4876;42.656;23.292;2023-09-08T04:15:56;15.13;;;8.60;;
9675;SDS011;4876;42.656;23.292;2023-09-08T04:18:24;11.50;;;8.47;;
9675;SDS011;4876;42.656;23.292;2023-09-08T04:20:52;15.73;;;8.40;;
9675;SDS011;4876;42.656;23.292;2023-09-08T04:23:19;14.27;;;8.93;;
9675;SDS011;4876;42.656;23.292;2023-09-08T04:25:46;13.53;;;9.00;;
9675;SDS011;4876;42.656;23.292;2023-09-08T04:28:12;13.97;;;9.17;;
9675;SDS011;4876;42.656;23.292;2023-09-08T04:30:39;11.90;;;9.37;;
9675;SDS011;4876;42.656;23.292;2023-09-08T04:33:06;13.20;;;9.60;;
9675;SDS011;4876;42.656;23.292;2023-09-08T04:35:34;11.10;;;9.40;;
9675;SDS011;4876;42.656;23.292;2023-09-08T04:38:01;18.40;;;9.37;;
9675;SDS011;4876;42.656;23.292;2023-09-08T04:40:28;13.20;;;9.03;;
9675;SDS011;4876;42.656;23.292;2023-09-08T04:42:55;10.77;;;8.73;;
9675;SDS011;4876;42.656;23.292;2023-09-08T04:45:22;13.13;;;8.50;;
9675;SDS011;4876;42.656;23.292;2023-09-08T04:47:48;9.90;;;8.27;;
9675;SDS011;4876;42.656;23.292;2023-09-08T04:50:15;17.50;;;8.87;;
9675;SDS011;4876;42.656;23.292;2023-09-08T04:52:44;10.37;;;8.17;;
9675;SDS011;4876;42.656;23.292;2023-09-08T04:55:10;10.90;;;8.33;;
9675;SDS011;4876;42.656;23.292;2023-09-08T04:57:37;9.40;;;6.70;;
9675;SDS011;4876;42.656;23.292;2023-09-08T05:00:05;8.70;;;7.03;;
9675;SDS011;4876;42.656;23.292;2023-09-08T05:02:32;17.43;;;8.37;;
9675;SDS011;4876;42.656;23.292;2023-09-08T05:04:59;14.93;;;8.33;;
9675;SDS011;4876;42.656;23.292;2023-09-08T05:07:26;17.37;;;8.70;;
9675;SDS011;4876;42.656;23.292;2023-09-08T05:09:54;8.73;;;7.20;;
9675;SDS011;4876;42.656;23.292;2023-09-08T05:12:21;13.17;;;7.07;;
9675;SDS011;4876;42.656;23.292;2023-09-08T05:14:48;15.27;;;8.03;;
9675;SDS011;4876;42.656;23.292;2023-09-08T05:17:20;11.17;;;7.50;;
9675;SDS011;4876;42.656;23.292;2023-09-08T05:19:47;13.30;;;6.97;;
9675;SDS011;4876;42.656;23.292;2023-09-08T05:22:14;12.27;;;5.00;;
9675;SDS011;4876;42.656;23.292;2023-09-08T05:24:41;7.17;;;4.97;;
9675;SDS011;4876;42.656;23.292;2023-09-08T05:27:09;10.67;;;6.20;;
9675;SDS011;4876;42.656;23.292;2023-09-08T05:29:36;10.93;;;6.67;;
9675;SDS011;4876;42.656;23.292;2023-09-08T05:32:03;7.77;;;5.13;;
9675;SDS011;4876;42.656;23.292;2023-09-08T05:34:30;8.90;;;6.20;;
9675;SDS011;4876;42.656;23.292;2023-09-08T05:36:57;11.23;;;6.77;;
9675;SDS011;4876;42.656;23.292;2023-09-08T05:39:24;7.47;;;5.50;;
9675;SDS011;4876;42.656;23.292;2023-09-08T05:41:51;12.97;;;6.17;;
9675;SDS011;4876;42.656;23.292;2023-09-08T05:44:19;9.10;;;6.00;;
9675;SDS011;4876;42.656;23.292;2023-09-08T05:46:46;11.47;;;5.37;;
9675;SDS011;4876;42.656;23.292;2023-09-08T05:49:13;9.93;;;5.60;;
9675;SDS011;4876;42.656;23.292;2023-09-08T05:51:40;9.33;;;4.40;;
9675;SDS011;4876;42.656;23.292;2023-09-08T05:54:07;5.97;;;4.43;;
9675;SDS011;4876;42.656;23.292;2023-09-08T05:56:33;8.43;;;4.57;;
9675;SDS011;4876;42.656;23.292;2023-09-08T05:59:00;6.20;;;4.87;;
9675;SDS011;4876;42.656;23.292;2023-09-08T06:01:29;7.73;;;4.30;;
9675;SDS011;4876;42.656;23.292;2023-09-08T06:03:56;5.40;;;3.30;;
9675;SDS011;4876;42.656;23.292;2023-09-08T06:06:23;9.10;;;4.47;;
9675;SDS011;4876;42.656;23.292;2023-09-08T06:08:50;8.57;;;4.60;;
9675;SDS011;4876;42.656;23.292;2023-09-08T06:11:17;6.43;;;4.83;;
9675;SDS011;4876;42.656;23.292;2023-09-08T06:13:44;9.17;;;4.60;;
9675;SDS011;4876;42.656;23.292;2023-09-08T06:16:10;10.47;;;5.00;;
9675;SDS011;4876;42.656;23.292;2023-09-08T06:18:38;5.90;;;4.23;;
9675;SDS011;4876;42.656;23.292;2023-09-08T06:21:06;8.67;;;4.93;;
9675;SDS011;4876;42.656;23.292;2023-09-08T06:23:33;6.50;;;4.83;;
9675;SDS011;4876;42.656;23.292;2023-09-08T06:26:00;7.13;;;3.70;;
9675;SDS011;4876;42.656;23.292;2023-09-08T06:28:27;5.23;;;4.10;;
9675;SDS011;4876;42.656;23.292;2023-09-08T06:30:54;10.23;;;4.30;;
9675;SDS011;4876;42.656;23.292;2023-09-08T06:33:21;4.90;;;4.30;;
9675;SDS011;4876;42.656;23.292;2023-09-08T06:35:50;9.10;;;3.90;;
9675;SDS011;4876;42.656;23.292;2023-09-08T06:38:18;10.97;;;4.30;;
9675;SDS011;4876;42.656;23.292;2023-09-08T06:40:45;3.50;;;3.20;;
9675;SDS011;4876;42.656;23.292;2023-09-08T06:43:13;12.03;;;3.63;;
9675;SDS011;4876;42.656;23.292;2023-09-08T06:45:39;8.30;;;3.67;;
9675;SDS011;4876;42.656;23.292;2023-09-08T06:48:06;4.30;;;3.60;;
9675;SDS011;4876;42.656;23.292;2023-09-08T06:50:33;5.23;;;3.53;;
9675;SDS011;4876;42.656;23.292;2023-09-08T06:53:02;4.13;;;3.27;;
9675;SDS011;4876;42.656;23.292;2023-09-08T06:55:28;4.60;;;3.70;;
9675;SDS011;4876;42.656;23.292;2023-09-08T06:57:56;6.17;;;3.63;;
9675;SDS011;4876;42.656;23.292;2023-09-08T07:00:23;3.27;;;2.33;;
9675;SDS011;4876;42.656;23.292;2023-09-08T07:02:49;4.50;;;3.20;;
9675;SDS011;4876;42.656;23.292;2023-09-08T07:05:16;4.20;;;3.70;;
9675;SDS011;4876;42.656;23.292;2023-09-08T07:07:43;5.17;;;3.80;;
9675;SDS011;4876;42.656;23.292;2023-09-08T07:10:12;4.97;;;3.10;;
9675;SDS011;4876;42.656;23.292;2023-09-08T07:12:39;6.67;;;3.83;;
9675;SDS011;4876;42.656;23.292;2023-09-08T07:15:06;6.97;;;4.30;;
9675;SDS011;4876;42.656;23.292;2023-09-08T07:17:34;6.47;;;4.30;;
9675;SDS011;4876;42.656;23.292;2023-09-08T07:20:02;4.97;;;2.80;;
9675;SDS011;4876;42.656;23.292;2023-09-08T07:22:30;5.60;;;3.20;;
9675;SDS011;4876;42.656;23.292;2023-09-08T07:24:56;5.43;;;3.67;;
9675;SDS011;4876;42.656;23.292;2023-09-08T07:27:25;6.40;;;3.73;;
9675;SDS011;4876;42.656;23.292;2023-09-08T07:29:51;9.00;;;3.80;;
9675;SDS011;4876;42.656;23.292;2023-09-08T07:32:18;8.77;;;3.87;;
9675;SDS011;4876;42.656;23.292;2023-09-08T07:34:45;4.63;;;3.60;;
9675;SDS011;4876;42.656;23.292;2023-09-08T07:37:13;4.97;;;3.60;;
9675;SDS011;4876;42.656;23.292;2023-09-08T07:39:39;4.57;;;3.40;;
9675;SDS011;4876;42.656;23.292;2023-09-08T07:42:06;5.57;;;3.40;;
9675;SDS011;4876;42.656;23.292;2023-09-08T07:44:35;6.23;;;3.60;;
9675;SDS011;4876;42.656;23.292;2023-09-08T07:47:01;6.03;;;3.43;;
9675;SDS011;4876;42.656;23.292;2023-09-08T07:49:28;8.00;;;3.77;;
9675;SDS011;4876;42.656;23.292;2023-09-08T07:51:56;7.63;;;3.43;;
9675;SDS011;4876;42.656;23.292;2023-09-08T07:54:23;4.20;;;2.73;;
9675;SDS011;4876;42.656;23.292;2023-09-08T07:56:50;5.33;;;3.40;;
9675;SDS011;4876;42.656;23.292;2023-09-08T07:59:17;6.47;;;3.60;;
9675;SDS011;4876;42.656;23.292;2023-09-08T08:01:45;5.50;;;3.77;;
9675;SDS011;4876;42.656;23.292;2023-09-08T08:04:12;8.23;;;4.37;;
9675;SDS011;4876;42.656;23.292;2023-09-08T08:06:39;4.73;;;3.97;;
9675;SDS011;4876;42.656;23.292;2023-09-08T08:09:06;4.07;;;3.30;;
9675;SDS011;4876;42.656;23.292;2023-09-08T08:11:33;9.13;;;4.20;;
9675;SDS011;4876;42.656;23.292;2023-09-08T08:13:59;8.67;;;4.03;;
9675;SDS011;4876;42.656;23.292;2023-09-08T08:16:27;4.93;;;4.17;;
9675;SDS011;4876;42.656;23.292;2023-09-08T08:18:55;8.30;;;3.90;;
9675;SDS011;4876;42.656;23.292;2023-09-08T08:21:22;6.90;;;3.90;;
9675;SDS011;4876;42.656;23.292;2023-09-08T08:23:49;5.90;;;4.07;;
9675;SDS011;4876;42.656;23.292;2023-09-08T08:26:16;5.67;;;4.00;;
9675;SDS011;4876;42.656;23.292;2023-09-08T08:28:43;10.77;;;4.03;;
9675;SDS011;4876;42.656;23.292;2023-09-08T08:31:10;4.20;;;3.80;;
9675;SDS011;4876;42.656;23.292;2023-09-08T08:33:37;4.83;;;3.70;;
9675;SDS011;4876;42.656;23.292;2023-09-08T08:36:05;8.97;;;3.57;;
9675;SDS011;4876;42.656;23.292;2023-09-08T08:38:33;3.63;;;2.93;;
9675;SDS011;4876;42.656;23.292;2023-09-08T08:41:03;4.63;;;3.47;;
9675;SDS011;4876;42.656;23.292;2023-09-08T08:43:31;4.93;;;3.43;;
9675;SDS011;4876;42.656;23.292;2023-09-08T08:45:58;6.10;;;3.43;;
9675;SDS011;4876;42.656;23.292;2023-09-08T08:48:28;6.90;;;3.80;;
9675;SDS011;4876;42.656;23.292;2023-09-08T08:50:56;10.97;;;3.60;;
9675;SDS011;4876;42.656;23.292;2023-09-08T08:53:25;9.60;;;3.73;;
9675;SDS011;4876;42.656;23.292;2023-09-08T08:55:53;5.10;;;3.30;;
9675;SDS011;4876;42.656;23.292;2023-09-08T08:58:24;10.27;;;4.10;;
9675;SDS011;4876;42.656;23.292;2023-09-08T09:00:52;9.80;;;4.10;;
9675;SDS011;4876;42.656;23.292;2023-09-08T09:03:22;7.40;;;3.60;;
9675;SDS011;4876;42.656;23.292;2023-09-08T09:05:50;8.23;;;4.33;;
9675;SDS011;4876;42.656;23.292;2023-09-08T09:08:18;6.37;;;3.67;;
9675;SDS011;4876;42.656;23.292;2023-09-08T09:10:48;4.40;;;3.50;;
9675;SDS011;4876;42.656;23.292;2023-09-08T09:13:15;6.70;;;3.60;;
9675;SDS011;4876;42.656;23.292;2023-09-08T09:15:42;4.10;;;3.53;;
9675;SDS011;4876;42.656;23.292;2023-09-08T09:18:10;5.43;;;3.80;;
9675;SDS011;4876;42.656;23.292;2023-09-08T09:20:36;4.63;;;3.67;;
9675;SDS011;4876;42.656;23.292;2023-09-08T09:23:05;8.40;;;4.07;;
9675;SDS011;4876;42.656;23.292;2023-09-08T09:25:32;6.03;;;3.63;;
9675;SDS011;4876;42.656;23.292;2023-09-08T09:28:00;11.30;;;3.67;;
9675;SDS011;4876;42.656;23.292;2023-09-08T09:30:37;7.40;;;3.90;;
9675;SDS011;4876;42.656;23.292;2023-09-08T09:33:13;6.97;;;4.47;;
9675;SDS011;4876;42.656;23.292;2023-09-08T09:35:41;5.60;;;3.03;;
9675;SDS011;4876;42.656;23.292;2023-09-08T09:38:08;6.07;;;3.87;;
9675;SDS011;4876;42.656;23.292;2023-09-08T09:40:35;5.43;;;2.77;;
9675;SDS011;4876;42.656;23.292;2023-09-08T09:43:04;4.87;;;3.97;;
9675;SDS011;4876;42.656;23.292;2023-09-08T09:45:32;6.60;;;3.63;;
9675;SDS011;4876;42.656;23.292;2023-09-08T09:48:01;6.27;;;4.30;;
9675;SDS011;4876;42.656;23.292;2023-09-08T09:50:29;4.83;;;4.03;;
9675;SDS011;4876;42.656;23.292;2023-09-08T09:52:58;4.70;;;4.03;;
9675;SDS011;4876;42.656;23.292;2023-09-08T09:55:26;5.97;;;3.63;;
9675;SDS011;4876;42.656;23.292;2023-09-08T09:57:55;7.17;;;4.10;;
9675;SDS011;4876;42.656;23.292;2023-09-08T10:00:25;3.87;;;3.53;;
9675;SDS011;4876;42.656;23.292;2023-09-08T10:02:53;4.63;;;3.67;;
9675;SDS011;4876;42.656;23.292;2023-09-08T10:05:21;8.40;;;3.30;;
9675;SDS011;4876;42.656;23.292;2023-09-08T10:07:50;5.37;;;3.80;;
9675;SDS011;4876;42.656;23.292;2023-09-08T10:10:18;7.17;;;4.03;;
9675;SDS011;4876;42.656;23.292;2023-09-08T10:12:48;7.33;;;4.13;;
9675;SDS011;4876;42.656;23.292;2023-09-08T10:15:19;4.87;;;3.50;;
9675;SDS011;4876;42.656;23.292;2023-09-08T10:17:51;4.53;;;3.60;;
9675;SDS011;4876;42.656;23.292;2023-09-08T10:20:19;5.50;;;3.47;;
9675;SDS011;4876;42.656;23.292;2023-09-08T10:22:50;6.00;;;3.97;;
9675;SDS011;4876;42.656;23.292;2023-09-08T10:25:20;9.20;;;4.17;;
9675;SDS011;4876;42.656;23.292;2023-09-08T10:27:50;6.47;;;3.97;;
9675;SDS011;4876;42.656;23.292;2023-09-08T10:30:17;4.20;;;3.80;;
9675;SDS011;4876;42.656;23.292;2023-09-08T10:32:46;3.83;;;2.87;;
9675;SDS011;4876;42.656;23.292;2023-09-08T10:35:16;4.97;;;3.10;;
9675;SDS011;4876;42.656;23.292;2023-09-08T10:37:44;3.13;;;2.77;;
9675;SDS011;4876;42.656;23.292;2023-09-08T10:40:20;6.13;;;3.87;;
9675;SDS011;4876;42.656;23.292;2023-09-08T10:42:48;5.70;;;3.50;;
9675;SDS011;4876;42.656;23.292;2023-09-08T10:45:15;4.47;;;3.40;;
9675;SDS011;4876;42.656;23.292;2023-09-08T10:47:55;6.53;;;3.93;;
9675;SDS011;4876;42.656;23.292;2023-09-08T10:50:27;5.13;;;3.37;;
9675;SDS011;4876;42.656;23.292;2023-09-08T10:53:13;4.87;;;3.73;;
9675;SDS011;4876;42.656;23.292;2023-09-08T10:55:41;5.43;;;3.80;;
9675;SDS011;4876;42.656;23.292;2023-09-08T10:58:18;4.30;;;3.37;;
9675;SDS011;4876;42.656;23.292;2023-09-08T11:00:47;3.07;;;2.77;;
9675;SDS011;4876;42.656;23.292;2023-09-08T11:03:26;3.83;;;3.10;;
9675;SDS011;4876;42.656;23.292;2023-09-08T11:05:55;4.37;;;3.60;;
9675;SDS011;4876;42.656;23.292;2023-09-08T11:08:22;3.23;;;2.93;;
9675;SDS011;4876;42.656;23.292;2023-09-08T11:10:49;3.40;;;3.10;;
9675;SDS011;4876;42.656;23.292;2023-09-08T11:13:17;15.30;;;4.47;;
9675;SDS011;4876;42.656;23.292;2023-09-08T11:15:44;5.20;;;3.40;;
9675;SDS011;4876;42.656;23.292;2023-09-08T11:18:12;8.23;;;5.00;;
9675;SDS011;4876;42.656;23.292;2023-09-08T11:20:40;5.47;;;3.70;;
9675;SDS011;4876;42.656;23.292;2023-09-08T11:23:09;11.10;;;3.37;;
9675;SDS011;4876;42.656;23.292;2023-09-08T11:25:36;10.10;;;3.90;;
9675;SDS011;4876;42.656;23.292;2023-09-08T11:28:04;5.70;;;3.20;;
9675;SDS011;4876;42.656;23.292;2023-09-08T11:30:32;10.23;;;3.80;;
9675;SDS011;4876;42.656;23.292;2023-09-08T11:32:58;7.63;;;4.50;;
9675;SDS011;4876;42.656;23.292;2023-09-08T11:35:26;5.13;;;4.33;;
9675;SDS011;4876;42.656;23.292;2023-09-08T11:37:59;3.50;;;3.20;;
9675;SDS011;4876;42.656;23.292;2023-09-08T11:40:28;8.40;;;3.30;;
9675;SDS011;4876;42.656;23.292;2023-09-08T11:42:57;5.43;;;4.20;;
9675;SDS011;4876;42.656;23.292;2023-09-08T11:45:24;5.77;;;3.77;;
9675;SDS011;4876;42.656;23.292;2023-09-08T11:47:52;4.50;;;3.53;;
9675;SDS011;4876;42.656;23.292;2023-09-08T11:50:19;8.27;;;4.17;;
9675;SDS011;4876;42.656;23.292;2023-09-08T11:52:47;4.77;;;3.37;;
9675;SDS011;4876;42.656;23.292;2023-09-08T11:55:16;8.10;;;3.30;;
9675;SDS011;4876;42.656;23.292;2023-09-08T11:57:46;6.43;;;3.93;;
9675;SDS011;4876;42.656;23.292;2023-09-08T12:00:16;6.03;;;3.80;;
9675;SDS011;4876;42.656;23.292;2023-09-08T12:02:46;4.90;;;3.57;;
9675;SDS011;4876;42.656;23.292;2023-09-08T12:05:14;4.77;;;4.00;;
9675;SDS011;4876;42.656;23.292;2023-09-08T12:07:48;5.47;;;4.20;;
9675;SDS011;4876;42.656;23.292;2023-09-08T12:10:17;4.60;;;3.63;;
9675;SDS011;4876;42.656;23.292;2023-09-08T12:12:45;4.63;;;3.47;;
9675;SDS011;4876;42.656;23.292;2023-09-08T12:18:01;4.27;;;3.60;;
9675;SDS011;4876;42.656;23.292;2023-09-08T12:20:28;4.13;;;3.70;;
9675;SDS011;4876;42.656;23.292;2023-09-08T12:22:57;3.20;;;2.90;;
9675;SDS011;4876;42.656;23.292;2023-09-08T12:25:27;4.90;;;3.33;;
9675;SDS011;4876;42.656;23.292;2023-09-08T12:27:56;3.27;;;2.97;;
9675;SDS011;4876;42.656;23.292;2023-09-08T12:30:23;5.60;;;3.87;;
9675;SDS011;4876;42.656;23.292;2023-09-08T12:32:55;4.63;;;4.03;;
9675;SDS011;4876;42.656;23.292;2023-09-08T12:35:23;7.60;;;3.50;;
9675;SDS011;4876;42.656;23.292;2023-09-08T12:37:57;4.10;;;3.47;;
9675;SDS011;4876;42.656;23.292;2023-09-08T12:40:27;5.30;;;3.70;;
9675;SDS011;4876;42.656;23.292;2023-09-08T12:42:54;5.23;;;3.10;;
9675;SDS011;4876;42.656;23.292;2023-09-08T12:45:23;7.07;;;3.70;;
9675;SDS011;4876;42.656;23.292;2023-09-08T12:47:51;7.77;;;3.60;;
9675;SDS011;4876;42.656;23.292;2023-09-08T12:50:20;6.00;;;3.73;;
9675;SDS011;4876;42.656;23.292;2023-09-08T12:52:47;4.50;;;3.80;;
9675;SDS011;4876;42.656;23.292;2023-09-08T12:55:13;4.93;;;3.80;;
9675;SDS011;4876;42.656;23.292;2023-09-08T12:57:42;5.93;;;3.97;;
9675;SDS011;4876;42.656;23.292;2023-09-08T13:00:09;4.77;;;3.77;;
9675;SDS011;4876;42.656;23.292;2023-09-08T13:02:36;5.53;;;3.60;;
9675;SDS011;4876;42.656;23.292;2023-09-08T13:05:03;4.23;;;3.80;;
9675;SDS011;4876;42.656;23.292;2023-09-08T13:07:30;5.30;;;4.10;;
9675;SDS011;4876;42.656;23.292;2023-09-08T13:09:57;6.60;;;4.87;;
9675;SDS011;4876;42.656;23.292;2023-09-08T13:12:24;5.77;;;4.50;;
9675;SDS011;4876;42.656;23.292;2023-09-08T13:14:52;5.03;;;4.47;;
9675;SDS011;4876;42.656;23.292;2023-09-08T13:17:19;5.53;;;3.43;;
9675;SDS011;4876;42.656;23.292;2023-09-08T13:19:46;8.70;;;3.30;;
9675;SDS011;4876;42.656;23.292;2023-09-08T13:22:13;10.77;;;4.47;;
9675;SDS011;4876;42.656;23.292;2023-09-08T13:24:40;5.13;;;3.73;;
9675;SDS011;4876;42.656;23.292;2023-09-08T13:27:07;5.07;;;3.13;;
9675;SDS011;4876;42.656;23.292;2023-09-08T13:29:34;11.17;;;4.47;;
9675;SDS011;4876;42.656;23.292;2023-09-08T13:32:03;10.37;;;4.63;;
9675;SDS011;4876;42.656;23.292;2023-09-08T13:34:30;3.27;;;2.97;;
9675;SDS011;4876;42.656;23.292;2023-09-08T13:36:57;5.43;;;3.67;;
9675;SDS011;4876;42.656;23.292;2023-09-08T13:39:24;8.33;;;4.10;;
9675;SDS011;4876;42.656;23.292;2023-09-08T13:41:51;3.80;;;3.40;;
9675;SDS011;4876;42.656;23.292;2023-09-08T13:44:20;5.70;;;3.70;;
9675;SDS011;4876;42.656;23.292;2023-09-08T13:46:47;7.77;;;4.10;;
9675;SDS011;4876;42.656;23.292;2023-09-08T13:49:16;4.40;;;3.80;;
9675;SDS011;4876;42.656;23.292;2023-09-08T13:51:43;10.90;;;4.50;;
9675;SDS011;4876;42.656;23.292;2023-09-08T13:54:10;7.43;;;4.07;;
9675;SDS011;4876;42.656;23.292;2023-09-08T13:56:38;5.67;;;4.10;;
9675;SDS011;4876;42.656;23.292;2023-09-08T13:59:06;4.93;;;3.93;;
9675;SDS011;4876;42.656;23.292;2023-09-08T14:01:33;7.17;;;4.00;;
9675;SDS011;4876;42.656;23.292;2023-09-08T14:04:00;6.70;;;4.47;;
9675;SDS011;4876;42.656;23.292;2023-09-08T14:06:29;4.77;;;3.97;;
9675;SDS011;4876;42.656;23.292;2023-09-08T14:08:55;5.40;;;3.23;;
9675;SDS011;4876;42.656;23.292;2023-09-08T14:11:22;5.33;;;4.37;;
9675;SDS011;4876;42.656;23.292;2023-09-08T14:13:49;7.47;;;4.63;;
9675;SDS011;4876;42.656;23.292;2023-09-08T14:16:17;11.43;;;4.80;;
9675;SDS011;4876;42.656;23.292;2023-09-08T14:18:44;6.83;;;3.87;;
9675;SDS011;4876;42.656;23.292;2023-09-08T14:21:11;4.83;;;3.93;;
9675;SDS011;4876;42.656;23.292;2023-09-08T14:23:39;5.50;;;4.03;;
9675;SDS011;4876;42.656;23.292;2023-09-08T14:26:06;8.23;;;4.03;;
9675;SDS011;4876;42.656;23.292;2023-09-08T14:28:33;7.70;;;4.00;;
9675;SDS011;4876;42.656;23.292;2023-09-08T14:31:00;7.00;;;4.70;;
9675;SDS011;4876;42.656;23.292;2023-09-08T14:33:27;6.77;;;3.97;;
9675;SDS011;4876;42.656;23.292;2023-09-08T14:35:54;8.37;;;4.23;;
9675;SDS011;4876;42.656;23.292;2023-09-08T14:38:21;9.47;;;3.83;;
9675;SDS011;4876;42.656;23.292;2023-09-08T14:40:56;4.50;;;4.10;;
9675;SDS011;4876;42.656;23.292;2023-09-08T14:43:24;4.03;;;3.53;;
9675;SDS011;4876;42.656;23.292;2023-09-08T14:45:52;10.67;;;4.33;;
9675;SDS011;4876;42.656;23.292;2023-09-08T14:48:19;8.20;;;4.57;;
9675;SDS011;4876;42.656;23.292;2023-09-08T14:50:46;5.83;;;4.30;;
9675;SDS011;4876;42.656;23.292;2023-09-08T14:53:13;7.23;;;3.97;;
9675;SDS011;4876;42.656;23.292;2023-09-08T14:55:40;5.13;;;3.87;;
9675;SDS011;4876;42.656;23.292;2023-09-08T14:58:10;4.97;;;3.83;;
9675;SDS011;4876;42.656;23.292;2023-09-08T15:00:38;5.33;;;4.30;;
9675;SDS011;4876;42.656;23.292;2023-09-08T15:03:05;8.07;;;3.93;;
9675;SDS011;4876;42.656;23.292;2023-09-08T15:05:32;5.73;;;4.40;;